This is the latest recevied weather packets stored in our database for station/object R6HABA-13. If no packets are shown the sender has not sent any weather packets the latest 10 day(s).
| Time | Temp. | Humidity | Pressure | Rain* | Wind** | Luminosity | Snow |
|---|---|---|---|---|---|---|---|
| 1778180402 | 16.11° C | 76% | 1011 hPa | - | 0.45 m/s, 359° | - | - |
| 1778179503 | 16.11° C | 76% | 1011 hPa | - | 0.45 m/s, 359° | - | - |
| 1778178602 | 16.11° C | 76% | 1011 hPa | - | 0.89 m/s, 359° | - | - |
| 1778177703 | 17.78° C | 65% | 1011 hPa | - | 2.68 m/s, 269° | - | - |
| 1778176803 | 17.78° C | 68% | 1011 hPa | - | 2.68 m/s, 269° | - | - |
| 1778175903 | 17.78° C | 66% | 1011 hPa | - | 2.68 m/s, 269° | - | - |
| 1778175003 | 18.89° C | 58% | 1011 hPa | - | 4.47 m/s, 273° | - | - |
| 1778174103 | 18.89° C | 58% | 1010 hPa | - | 4.47 m/s, 273° | - | - |
| 1778173594 | -17.78° C | - | 0 hPa | - | 4.47 m/s, 273° | - | - |
| 1778172303 | 18.89° C | 60% | 1010 hPa | - | 4.47 m/s, 273° | - | - |
| 1778171403 | 22.22° C | 60% | 1010 hPa | - | 3.58 m/s, 244° | - | - |
| 1778170503 | 22.22° C | 60% | 1009 hPa | - | 3.58 m/s, 244° | - | - |
| 1778169603 | 22.22° C | 60% | 1010 hPa | - | 3.58 m/s, 244° | - | - |
| 1778168703 | 22.22° C | 60% | 1010 hPa | - | 4.02 m/s, 244° | - | - |
| 1778168456 | -17.78° C | - | 1010 hPa | - | 0 m/s | - | - |
| 1778167426 | 21.11° C | - | 0 hPa | - | 0 m/s | - | - |
| 1778166003 | 21.11° C | 47% | 1009 hPa | - | 5.81 m/s, 228° | - | - |
| 1778165103 | 21.11° C | 47% | 1009 hPa | - | 5.81 m/s, 228° | - | - |
| 1778164203 | 21.11° C | 47% | 1009 hPa | - | 5.81 m/s, 228° | - | - |
| 1778163303 | 21.11° C | 47% | 1009 hPa | - | 5.81 m/s, 228° | - | - |
| 1778162403 | 21.11° C | 47% | 1009 hPa | - | 5.81 m/s, 228° | - | - |
| 1778161503 | 21.11° C | 47% | 1009 hPa | - | 5.81 m/s, 228° | - | - |
| 1778161388 | -17.78° C | - | 0 hPa | - | 0 m/s | - | - |
| 1778160356 | -17.78° C | - | 1010 hPa | - | 0 m/s | - | - |
| 1778158803 | 24.44° C | 41% | 1010 hPa | - | 4.47 m/s, 225° | - | - |
* Rain since midnight (hover to see other rain measurements)
** Current wind speed in m/s (hover to see current wind gust speed)